^^
Station Historical Data
Daily Summary for January 12, 2019 Units:  Both    English   Metric
« Previous Day
Next Day »
Daily Weekly Monthly Yearly Custom
  High: Low: Average:
Temperature: TemperatureF °F /  -17.8 °C -9.8 °F /  -23.2 °C -1.1 °F /  -18.4 °C
Dew Point: DewpointF °F /  -17.8 °C -13.8 °F /  -25.4 °C -6.7 °F /  -21.5 °C
Humidity: Humidity % 66 % 77 %
Wind Speed: WindSpeedMPH mph /  0 km/h - 0.6 mph /  1 km/h
Wind Gust: WindSpeedGustMPH mph /  0 km/h - -
Wind:- - NW
Pressure: PressureIn in /  0 hPa 30.37 in /  1028.3 hPa -
Precipitation: 0.00 in /  0 mm    
Historical Graphs
 
 
Tabular Data for January 12, 2019
Time Temperature Dew Point Pressure Wind Wind Speed Wind Gust Humidity Rainfall Rate (Hourly) solar Conditions
TemperatureF °F /  -17.8 °C DewpointF °F /  -17.8 °C PressureIn in /  0 hPa Calm     Humidity % HourlyPrecipIn in /  0 mm SoftwareType W/m2 Conditions
00:00 1.1 °F /  -17.2 °C -5.3 °F /  -20.7 °C 30.37 in /  1028.3 hPa NNW 1.0 mph /  1.6 km/h 3.0 mph /  4.8 km/h 74 % 0.00 in /  0 mm WeatherDisplay:10.37 W/m2 FEW
00:05 1.0 °F /  -17.2 °C -5.4 °F /  -20.8 °C 30.37 in /  1028.3 hPa NW 1.0 mph /  1.6 km/h 4.0 mph /  6.4 km/h 74 % 0.00 in /  0 mm WeatherDisplay:10.37 W/m2 FEW
00:10 0.9 °F /  -17.3 °C -5.4 °F /  -20.8 °C 30.37 in /  1028.3 hPa Calm   2.0 mph /  3.2 km/h 74 % 0.00 in /  0 mm WeatherDisplay:10.37 W/m2 FEW
00:15 0.9 °F /  -17.3 °C -5.5 °F /  -20.8 °C 30.37 in /  1028.3 hPa Calm   3.0 mph /  4.8 km/h 74 % 0.00 in /  0 mm WeatherDisplay:10.37 W/m2 FEW
00:20 0.8 °F /  -17.3 °C -5.5 °F /  -20.8 °C 30.37 in /  1028.3 hPa Calm   2.0 mph /  3.2 km/h 74 % 0.00 in /  0 mm WeatherDisplay:10.37 W/m2 FEW
00:25 0.7 °F /  -17.4 °C -5.6 °F /  -20.9 °C 30.37 in /  1028.3 hPa Calm   3.0 mph /  4.8 km/h 74 % 0.00 in /  0 mm WeatherDisplay:10.37 W/m2 FEW
00:30 0.6 °F /  -17.4 °C -5.7 °F /  -20.9 °C 30.38 in /  1028.7 hPa Calm   2.0 mph /  3.2 km/h 74 % 0.00 in /  0 mm WeatherDisplay:10.37 W/m2 FEW
00:35 0.5 °F /  -17.5 °C -5.6 °F /  -20.9 °C 30.37 in /  1028.3 hPa Calm   1.0 mph /  1.6 km/h 75 % 0.00 in /  0 mm WeatherDisplay:10.37 W/m2 FEW
00:40 0.4 °F /  -17.6 °C -5.7 °F /  -20.9 °C 30.37 in /  1028.3 hPa Calm   5.0 mph /  8 km/h 75 % 0.00 in /  0 mm WeatherDisplay:10.37 W/m2 FEW
00:45 0.3 °F /  -17.6 °C -5.8 °F /  -21 °C 30.38 in /  1028.7 hPa Calm   3.0 mph /  4.8 km/h 75 % 0.00 in /  0 mm WeatherDisplay:10.37 W/m2 FEW
00:50 0.2 °F /  -17.7 °C -5.8 °F /  -21 °C 30.38 in /  1028.7 hPa Calm     75 % 0.00 in /  0 mm WeatherDisplay:10.37 W/m2 FEW
00:55 0.1 °F /  -17.7 °C -5.9 °F /  -21.1 °C 30.38 in /  1028.7 hPa Calm     75 % 0.00 in /  0 mm WeatherDisplay:10.37 W/m2 FEW
01:00 0.0 °F /  -17.8 °C -6.0 °F /  -21.1 °C 30.38 in /  1028.7 hPa Calm   3.0 mph /  4.8 km/h 75 % 0.00 in /  0 mm WeatherDisplay:10.37 W/m2 FEW
01:05 -0.1 °F /  -17.8 °C -6.2 °F /  -21.2 °C 30.38 in /  1028.7 hPa Calm   2.0 mph /  3.2 km/h 75 % 0.00 in /  0 mm WeatherDisplay:10.37 W/m2 FEW
01:10 -0.2 °F /  -17.9 °C -6.2 °F /  -21.2 °C 30.38 in /  1028.7 hPa Calm   1.0 mph /  1.6 km/h 75 % 0.00 in /  0 mm WeatherDisplay:10.37 W/m2 FEW
01:15 -0.3 °F /  -17.9 °C -6.1 °F /  -21.2 °C 30.38 in /  1028.7 hPa Calm   1.0 mph /  1.6 km/h 76 % 0.00 in /  0 mm WeatherDisplay:10.37 W/m2 FEW
01:20 -0.4 °F /  -18 °C -6.1 °F /  -21.2 °C 30.38 in /  1028.7 hPa Calm     76 % 0.00 in /  0 mm WeatherDisplay:10.37 W/m2 FEW
01:25 -0.4 °F /  -18 °C -6.2 °F /  -21.2 °C 30.39 in /  1029 hPa Calm     76 % 0.00 in /  0 mm WeatherDisplay:10.37 W/m2 FEW
01:30 -0.5 °F /  -18.1 °C -6.3 °F /  -21.3 °C 30.39 in /  1029 hPa Calm     76 % 0.00 in /  0 mm WeatherDisplay:10.37 W/m2 FEW
01:35 -0.6 °F /  -18.1 °C -6.4 °F /  -21.3 °C 30.39 in /  1029 hPa Calm   1.0 mph /  1.6 km/h 76 % 0.00 in /  0 mm WeatherDisplay:10.37 W/m2 FEW
01:40 -0.7 °F /  -18.2 °C -6.4 °F /  -21.3 °C 30.39 in /  1029 hPa Calm     76 % 0.00 in /  0 mm WeatherDisplay:10.37 W/m2 FEW
01:45 -0.8 °F /  -18.2 °C -6.5 °F /  -21.4 °C 30.39 in /  1029 hPa Calm     76 % 0.00 in /  0 mm WeatherDisplay:10.37 W/m2 FEW
01:50 -0.9 °F /  -18.3 °C -6.7 °F /  -21.5 °C 30.39 in /  1029 hPa Calm     76 % 0.00 in /  0 mm WeatherDisplay:10.37 W/m2 FEW
01:55 -1.1 °F /  -18.4 °C -6.8 °F /  -21.6 °C 30.39 in /  1029 hPa Calm     76 % 0.00 in /  0 mm WeatherDisplay:10.37 W/m2 FEW
02:00 -1.3 °F /  -18.5 °C -7.1 °F /  -21.7 °C 30.40 in /  1029.3 hPa Calm     76 % 0.00 in /  0 mm WeatherDisplay:10.37 W/m2 FEW
02:05 -1.6 °F /  -18.7 °C -7.3 °F /  -21.8 °C 30.40 in /  1029.3 hPa Calm     76 % 0.00 in /  0 mm WeatherDisplay:10.37 W/m2 FEW
02:10 -1.8 °F /  -18.8 °C -7.5 °F /  -21.9 °C 30.40 in /  1029.3 hPa Calm     76 % 0.00 in /  0 mm WeatherDisplay:10.37 W/m2 FEW
02:15 -2.0 °F /  -18.9 °C -7.7 °F /  -22.1 °C 30.40 in /  1029.3 hPa Calm     76 % 0.00 in /  0 mm WeatherDisplay:10.37 W/m2 FEW
02:20 -2.2 °F /  -19 °C -7.9 °F /  -22.2 °C 30.41 in /  1029.7 hPa Calm   2.0 mph /  3.2 km/h 76 % 0.00 in /  0 mm WeatherDisplay:10.37 W/m2 FEW
02:25 -2.4 °F /  -19.1 °C -8.1 °F /  -22.3 °C 30.41 in /  1029.7 hPa Calm   2.0 mph /  3.2 km/h 76 % 0.00 in /  0 mm WeatherDisplay:10.37 W/m2 FEW
02:30 -2.7 °F /  -19.3 °C -8.1 °F /  -22.3 °C 30.41 in /  1029.7 hPa Calm   1.0 mph /  1.6 km/h 77 % 0.00 in /  0 mm WeatherDisplay:10.37 W/m2 FEW
02:35 -2.9 °F /  -19.4 °C -8.3 °F /  -22.4 °C 30.41 in /  1029.7 hPa Calm   1.0 mph /  1.6 km/h 77 % 0.00 in /  0 mm WeatherDisplay:10.37 W/m2 FEW
02:40 -3.1 °F /  -19.5 °C -8.5 °F /  -22.5 °C 30.41 in /  1029.7 hPa Calm   1.0 mph /  1.6 km/h 77 % 0.00 in /  0 mm WeatherDisplay:10.37 W/m2 FEW
02:45 -3.3 °F /  -19.6 °C -8.7 °F /  -22.6 °C 30.41 in /  1029.7 hPa Calm     77 % 0.00 in /  0 mm WeatherDisplay:10.37 W/m2 FEW
02:50 -3.4 °F /  -19.7 °C -8.5 °F /  -22.5 °C 30.41 in /  1029.7 hPa Calm     78 % 0.00 in /  0 mm WeatherDisplay:10.37 W/m2 FEW
02:55 -3.5 °F /  -19.7 °C -8.6 °F /  -22.6 °C 30.42 in /  1030 hPa Calm     78 % 0.00 in /  0 mm WeatherDisplay:10.37 W/m2 FEW
03:00 -3.6 °F /  -19.8 °C -8.7 °F /  -22.6 °C 30.42 in /  1030 hPa Calm   1.0 mph /  1.6 km/h 78 % 0.00 in /  0 mm WeatherDisplay:10.37 W/m2 FEW
03:05 -3.8 °F /  -19.9 °C -8.9 °F /  -22.7 °C 30.42 in /  1030 hPa Calm   1.0 mph /  1.6 km/h 78 % 0.00 in /  0 mm WeatherDisplay:10.37 W/m2 FEW
03:10 -3.9 °F /  -19.9 °C -9.0 °F /  -22.8 °C 30.42 in /  1030 hPa Calm     78 % 0.00 in /  0 mm WeatherDisplay:10.37 W/m2 FEW
03:15 -4.0 °F /  -20 °C -8.9 °F /  -22.7 °C 30.42 in /  1030 hPa Calm     79 % 0.00 in /  0 mm WeatherDisplay:10.37 W/m2 FEW
03:20 -4.2 °F /  -20.1 °C -9.3 °F /  -22.9 °C 30.42 in /  1030 hPa Calm     78 % 0.00 in /  0 mm WeatherDisplay:10.37 W/m2 FEW
03:25 -4.3 °F /  -20.2 °C -9.4 °F /  -23 °C 30.42 in /  1030 hPa Calm     78 % 0.00 in /  0 mm WeatherDisplay:10.37 W/m2 FEW
03:30 -4.5 °F /  -20.3 °C -9.4 °F /  -23 °C 30.43 in /  1030.4 hPa Calm     79 % 0.00 in /  0 mm WeatherDisplay:10.37 W/m2 FEW
03:35 -4.7 °F /  -20.4 °C -9.8 °F /  -23.2 °C 30.43 in /  1030.4 hPa Calm     78 % 0.00 in /  0 mm WeatherDisplay:10.37 W/m2 FEW
03:40 -4.9 °F /  -20.5 °C -9.7 °F /  -23.2 °C 30.43 in /  1030.4 hPa Calm     79 % 0.00 in /  0 mm WeatherDisplay:10.37 W/m2 FEW
03:45 -5.1 °F /  -20.6 °C -9.9 °F /  -23.3 °C 30.43 in /  1030.4 hPa Calm     79 % 0.00 in /  0 mm WeatherDisplay:10.37 W/m2 FEW
03:50 -5.3 °F /  -20.7 °C -10.1 °F /  -23.4 °C 30.43 in /  1030.4 hPa Calm     79 % 0.00 in /  0 mm WeatherDisplay:10.37 W/m2 FEW
03:55 -5.4 °F /  -20.8 °C -10.3 °F /  -23.5 °C 30.43 in /  1030.4 hPa Calm     79 % 0.00 in /  0 mm WeatherDisplay:10.37 W/m2 FEW
04:00 -5.6 °F /  -20.9 °C -10.4 °F /  -23.6 °C 30.43 in /  1030.4 hPa Calm     79 % 0.00 in /  0 mm WeatherDisplay:10.37 W/m2 FEW
04:05 -5.8 °F /  -21 °C -10.6 °F /  -23.7 °C 30.43 in /  1030.4 hPa Calm     79 % 0.00 in /  0 mm WeatherDisplay:10.37 W/m2 FEW
04:10 -5.9 °F /  -21.1 °C -10.7 °F /  -23.7 °C 30.43 in /  1030.4 hPa Calm     79 % 0.00 in /  0 mm WeatherDisplay:10.37 W/m2 FEW
04:15 -6.1 °F /  -21.2 °C -10.9 °F /  -23.8 °C 30.43 in /  1030.4 hPa Calm     79 % 0.00 in /  0 mm WeatherDisplay:10.37 W/m2 FEW
04:20 -6.3 °F /  -21.3 °C -11.1 °F /  -23.9 °C 30.43 in /  1030.4 hPa Calm     79 % 0.00 in /  0 mm WeatherDisplay:10.37 W/m2 FEW
04:25 -6.4 °F /  -21.3 °C -11.3 °F /  -24.1 °C 30.43 in /  1030.4 hPa Calm     79 % 0.00 in /  0 mm WeatherDisplay:10.37 W/m2 FEW
04:30 -6.7 °F /  -21.5 °C -11.3 °F /  -24.1 °C 30.43 in /  1030.4 hPa Calm     80 % 0.00 in /  0 mm WeatherDisplay:10.37 W/m2 FEW
04:35 -6.9 °F /  -21.6 °C -11.7 °F /  -24.3 °C 30.43 in /  1030.4 hPa Calm     79 % 0.00 in /  0 mm WeatherDisplay:10.37 W/m2 FEW
04:40 -7.1 °F /  -21.7 °C -11.9 °F /  -24.4 °C 30.43 in /  1030.4 hPa Calm     79 % 0.00 in /  0 mm WeatherDisplay:10.37 W/m2 FEW
04:45 -7.3 °F /  -21.8 °C -12.1 °F /  -24.5 °C 30.43 in /  1030.4 hPa Calm     79 % 0.00 in /  0 mm WeatherDisplay:10.37 W/m2 FEW
04:50 -7.6 °F /  -22 °C -12.4 °F /  -24.7 °C 30.44 in /  1030.7 hPa Calm     79 % 0.00 in /  0 mm WeatherDisplay:10.37 W/m2 FEW
04:55 -7.8 °F /  -22.1 °C -12.3 °F /  -24.6 °C 30.44 in /  1030.7 hPa Calm     80 % 0.00 in /  0 mm WeatherDisplay:10.37 W/m2 FEW
05:00 -8.0 °F /  -22.2 °C -12.5 °F /  -24.7 °C 30.44 in /  1030.7 hPa Calm     80 % 0.00 in /  0 mm WeatherDisplay:10.37 W/m2 FEW
05:05 -8.1 °F /  -22.3 °C -12.6 °F /  -24.8 °C 30.44 in /  1030.7 hPa Calm     80 % 0.00 in /  0 mm WeatherDisplay:10.37 W/m2 FEW
05:10 -8.3 °F /  -22.4 °C -12.8 °F /  -24.9 °C 30.44 in /  1030.7 hPa Calm     80 % 0.00 in /  0 mm WeatherDisplay:10.37 W/m2 FEW
05:15 -8.4 °F /  -22.4 °C -12.9 °F /  -24.9 °C 30.44 in /  1030.7 hPa Calm     80 % 0.00 in /  0 mm WeatherDisplay:10.37 W/m2 FEW
05:20 -8.5 °F /  -22.5 °C -13.0 °F /  -25 °C 30.44 in /  1030.7 hPa Calm     80 % 0.00 in /  0 mm WeatherDisplay:10.37 W/m2 FEW
05:25 -8.6 °F /  -22.6 °C -13.1 °F /  -25.1 °C 30.44 in /  1030.7 hPa Calm     80 % 0.00 in /  0 mm WeatherDisplay:10.37 W/m2 FEW
05:30 -8.7 °F /  -22.6 °C -13.2 °F /  -25.1 °C 30.44 in /  1030.7 hPa Calm     80 % 0.00 in /  0 mm WeatherDisplay:10.37 W/m2 FEW
05:35 -8.7 °F /  -22.6 °C -13.2 °F /  -25.1 °C 30.45 in /  1031 hPa Calm     80 % 0.00 in /  0 mm WeatherDisplay:10.37 W/m2 FEW
05:40 -8.8 °F /  -22.7 °C -13.1 °F /  -25.1 °C 30.45 in /  1031 hPa Calm     81 % 0.00 in /  0 mm WeatherDisplay:10.37 W/m2 FEW
05:45 -8.8 °F /  -22.7 °C -13.1 °F /  -25.1 °C 30.45 in /  1031 hPa Calm     81 % 0.00 in /  0 mm WeatherDisplay:10.37 W/m2 FEW
05:50 -8.9 °F /  -22.7 °C -13.2 °F /  -25.1 °C 30.45 in /  1031 hPa Calm     81 % 0.00 in /  0 mm WeatherDisplay:10.37 W/m2 FEW
05:55 -8.9 °F /  -22.7 °C -13.2 °F /  -25.1 °C 30.45 in /  1031 hPa Calm     81 % 0.00 in /  0 mm WeatherDisplay:10.37 W/m2 FEW
06:00 -9.0 °F /  -22.8 °C -13.3 °F /  -25.2 °C 30.45 in /  1031 hPa Calm     81 % 0.00 in /  0 mm WeatherDisplay:10.37 W/m2 FEW
06:05 -9.0 °F /  -22.8 °C -13.3 °F /  -25.2 °C 30.46 in /  1031.4 hPa Calm     81 % 0.00 in /  0 mm WeatherDisplay:10.37 W/m2 FEW
06:10 -9.0 °F /  -22.8 °C -13.0 °F /  -25 °C 30.46 in /  1031.4 hPa Calm     82 % 0.00 in /  0 mm WeatherDisplay:10.37 W/m2 FEW
06:15 -8.9 °F /  -22.7 °C -12.9 °F /  -24.9 °C 30.46 in /  1031.4 hPa Calm     82 % 0.00 in /  0 mm WeatherDisplay:10.37 W/m2 FEW
06:20 -8.9 °F /  -22.7 °C -12.9 °F /  -24.9 °C 30.46 in /  1031.4 hPa Calm     82 % 0.00 in /  0 mm WeatherDisplay:10.37 W/m2 FEW
06:25 -8.9 °F /  -22.7 °C -12.9 °F /  -24.9 °C 30.46 in /  1031.4 hPa Calm     82 % 0.00 in /  0 mm WeatherDisplay:10.37 W/m2 FEW
06:30 -8.9 °F /  -22.7 °C -12.9 °F /  -24.9 °C 30.46 in /  1031.4 hPa Calm     82 % 0.00 in /  0 mm WeatherDisplay:10.37 W/m2 FEW
06:35 -9.0 °F /  -22.8 °C -13.0 °F /  -25 °C 30.47 in /  1031.7 hPa Calm     82 % 0.00 in /  0 mm WeatherDisplay:10.37 W/m2 FEW
06:40 -9.0 °F /  -22.8 °C -13.0 °F /  -25 °C 30.47 in /  1031.7 hPa Calm     82 % 0.00 in /  0 mm WeatherDisplay:10.37 W/m2 FEW
06:45 -9.1 °F /  -22.8 °C -13.1 °F /  -25.1 °C 30.47 in /  1031.7 hPa Calm     82 % 0.00 in /  0 mm WeatherDisplay:10.37 W/m2 FEW
06:50 -9.2 °F /  -22.9 °C -13.2 °F /  -25.1 °C 30.47 in /  1031.7 hPa Calm     82 % 0.00 in /  0 mm WeatherDisplay:10.37 W/m2 FEW
06:55 -9.2 °F /  -22.9 °C -13.2 °F /  -25.1 °C 30.47 in /  1031.7 hPa Calm   1.0 mph /  1.6 km/h 82 % 0.00 in /  0 mm WeatherDisplay:10.37 W/m2 FEW
07:00 -9.3 °F /  -22.9 °C -13.3 °F /  -25.2 °C 30.47 in /  1031.7 hPa Calm     82 % 0.00 in /  0 mm WeatherDisplay:10.37 W/m2 FEW
07:05 -9.4 °F /  -23 °C -13.4 °F /  -25.2 °C 30.47 in /  1031.7 hPa Calm     82 % 0.00 in /  0 mm WeatherDisplay:10.37 W/m2 FEW
07:10 -9.4 °F /  -23 °C -13.4 °F /  -25.2 °C 30.48 in /  1032.1 hPa Calm     82 % 0.00 in /  0 mm WeatherDisplay:10.37 W/m2 FEW
07:15 -9.4 °F /  -23 °C -13.4 °F /  -25.2 °C 30.48 in /  1032.1 hPa Calm     82 % 0.00 in /  0 mm WeatherDisplay:10.37 W/m2 FEW
07:20 -9.5 °F /  -23.1 °C -13.5 °F /  -25.3 °C 30.48 in /  1032.1 hPa Calm     82 % 0.00 in /  0 mm WeatherDisplay:10.37 W/m2 FEW
07:25 -9.5 °F /  -23.1 °C -13.5 °F /  -25.3 °C 30.48 in /  1032.1 hPa Calm     82 % 0.00 in /  0 mm WeatherDisplay:10.37 W/m2 FEW
07:30 -9.5 °F /  -23.1 °C -13.5 °F /  -25.3 °C 30.48 in /  1032.1 hPa Calm     82 % 0.00 in /  0 mm WeatherDisplay:10.37 W/m2 FEW
07:35 -9.5 °F /  -23.1 °C -13.5 °F /  -25.3 °C 30.48 in /  1032.1 hPa Calm     82 % 0.00 in /  0 mm WeatherDisplay:10.37 W/m2 FEW
07:40 -9.6 °F /  -23.1 °C -13.6 °F /  -25.3 °C 30.49 in /  1032.4 hPa Calm     82 % 0.00 in /  0 mm WeatherDisplay:10.37 W/m2 FEW
07:45 -9.6 °F /  -23.1 °C -13.6 °F /  -25.3 °C 30.49 in /  1032.4 hPa Calm     82 % 0.00 in /  0 mm WeatherDisplay:10.37 W/m2 FEW
07:50 -9.7 °F /  -23.2 °C -13.7 °F /  -25.4 °C 30.49 in /  1032.4 hPa Calm   1.0 mph /  1.6 km/h 82 % 0.00 in /  0 mm WeatherDisplay:10.37 W/m2 FEW
07:55 -9.7 °F /  -23.2 °C -13.7 °F /  -25.4 °C 30.49 in /  1032.4 hPa Calm   1.0 mph /  1.6 km/h 82 % 0.00 in /  0 mm WeatherDisplay:10.37 W/m2 FEW
08:00 -9.8 °F /  -23.2 °C -13.8 °F /  -25.4 °C 30.49 in /  1032.4 hPa Calm     82 % 0.00 in /  0 mm WeatherDisplay:10.37 W/m2 FEW
08:05 -9.8 °F /  -23.2 °C -13.8 °F /  -25.4 °C 30.50 in /  1032.7 hPa Calm     82 % 0.00 in /  0 mm WeatherDisplay:10.37 W/m2 FEW
08:10 -9.7 °F /  -23.2 °C -13.5 °F /  -25.3 °C 30.50 in /  1032.7 hPa Calm   1.0 mph /  1.6 km/h 83 % 0.00 in /  0 mm WeatherDisplay:10.37 W/m2 FEW
08:15 -9.6 °F /  -23.1 °C -13.4 °F /  -25.2 °C 30.50 in /  1032.7 hPa Calm   2.0 mph /  3.2 km/h 83 % 0.00 in /  0 mm WeatherDisplay:10.37 W/m2 FEW
08:20 -9.5 °F /  -23.1 °C -13.3 °F /  -25.2 °C 30.50 in /  1032.7 hPa Calm   1.0 mph /  1.6 km/h 83 % 0.00 in /  0 mm WeatherDisplay:10.37 W/m2 FEW
08:25 -9.4 °F /  -23 °C -13.1 °F /  -25.1 °C 30.51 in /  1033.1 hPa Calm   2.0 mph /  3.2 km/h 83 % 0.00 in /  0 mm WeatherDisplay:10.37 W/m2 FEW
08:30 -9.2 °F /  -22.9 °C -12.7 °F /  -24.8 °C 30.51 in /  1033.1 hPa Calm   4.0 mph /  6.4 km/h 84 % 0.00 in /  0 mm WeatherDisplay:10.37 W/m2 FEW
08:35 -8.9 °F /  -22.7 °C -12.4 °F /  -24.7 °C 30.51 in /  1033.1 hPa Calm   2.0 mph /  3.2 km/h 84 % 0.00 in /  0 mm WeatherDisplay:10.37 W/m2 FEW
08:40 -8.6 °F /  -22.6 °C -12.2 °F /  -24.6 °C 30.52 in /  1033.4 hPa Calm   2.0 mph /  3.2 km/h 84 % 0.00 in /  0 mm WeatherDisplay:10.37 W/m2 FEW
08:45 -8.3 °F /  -22.4 °C -11.6 °F /  -24.2 °C 30.52 in /  1033.4 hPa Calm   2.0 mph /  3.2 km/h 85 % 0.00 in /  0 mm WeatherDisplay:10.37 W/m2 FEW
08:50 -8.0 °F /  -22.2 °C -11.3 °F /  -24.1 °C 30.52 in /  1033.4 hPa Calm   1.0 mph /  1.6 km/h 85 % 0.00 in /  0 mm WeatherDisplay:10.37 W/m2 FEW
08:55 -7.5 °F /  -21.9 °C -10.9 °F /  -23.8 °C 30.52 in /  1033.4 hPa Calm   3.0 mph /  4.8 km/h 85 % 0.00 in /  0 mm WeatherDisplay:10.37 W/m2 FEW
09:00 -6.9 °F /  -21.6 °C -10.0 °F /  -23.3 °C 30.52 in /  1033.4 hPa NW 1.0 mph /  1.6 km/h 3.0 mph /  4.8 km/h 86 % 0.00 in /  0 mm WeatherDisplay:10.37 W/m2 FEW
09:05 -6.3 °F /  -21.3 °C -9.4 °F /  -23 °C 30.53 in /  1033.7 hPa Calm   2.0 mph /  3.2 km/h 86 % 0.00 in /  0 mm WeatherDisplay:10.37 W/m2 FEW
09:10 -5.9 °F /  -21.1 °C -9.0 °F /  -22.8 °C 30.53 in /  1033.7 hPa Calm   2.0 mph /  3.2 km/h 86 % 0.00 in /  0 mm WeatherDisplay:10.37 W/m2 FEW
09:15 -5.6 °F /  -20.9 °C -8.7 °F /  -22.6 °C 30.53 in /  1033.7 hPa Calm   1.0 mph /  1.6 km/h 86 % 0.00 in /  0 mm WeatherDisplay:10.37 W/m2 FEW
09:20 -5.4 °F /  -20.8 °C -8.5 °F /  -22.5 °C 30.53 in /  1033.7 hPa Calm     86 % 0.00 in /  0 mm WeatherDisplay:10.37 W/m2 FEW
09:25 -5.0 °F /  -20.6 °C -8.1 °F /  -22.3 °C 30.53 in /  1033.7 hPa Calm     86 % 0.00 in /  0 mm WeatherDisplay:10.37 W/m2 FEW
09:30 -4.6 °F /  -20.3 °C -7.5 °F /  -21.9 °C 30.53 in /  1033.7 hPa Calm     87 % 0.00 in /  0 mm WeatherDisplay:10.37 W/m2 FEW
09:35 -4.3 °F /  -20.2 °C -7.2 °F /  -21.8 °C 30.53 in /  1033.7 hPa Calm     87 % 0.00 in /  0 mm WeatherDisplay:10.37 W/m2 FEW
09:40 -3.8 °F /  -19.9 °C -6.7 °F /  -21.5 °C 30.53 in /  1033.7 hPa Calm   3.0 mph /  4.8 km/h 87 % 0.00 in /  0 mm WeatherDisplay:10.37 W/m2 FEW
09:45 -3.2 °F /  -19.6 °C -6.1 °F /  -21.2 °C 30.53 in /  1033.7 hPa Calm   5.0 mph /  8 km/h 87 % 0.00 in /  0 mm WeatherDisplay:10.37 W/m2 FEW
09:50 -2.4 °F /  -19.1 °C -5.3 °F /  -20.7 °C 30.53 in /  1033.7 hPa NW 2.0 mph /  3.2 km/h 5.0 mph /  8 km/h 87 % 0.00 in /  0 mm WeatherDisplay:10.37 W/m2 FEW
09:55 -1.5 °F /  -18.6 °C -4.4 °F /  -20.2 °C 30.53 in /  1033.7 hPa NNW 3.0 mph /  4.8 km/h 6.0 mph /  9.7 km/h 87 % 0.00 in /  0 mm WeatherDisplay:10.37 W/m2 FEW
10:00 -0.8 °F /  -18.2 °C -3.9 °F /  -19.9 °C 30.53 in /  1033.7 hPa NW 2.0 mph /  3.2 km/h 5.0 mph /  8 km/h 86 % 0.00 in /  0 mm WeatherDisplay:10.37 W/m2 FEW
10:05 -0.1 °F /  -17.8 °C -3.5 °F /  -19.7 °C 30.53 in /  1033.7 hPa NW 1.0 mph /  1.6 km/h 6.0 mph /  9.7 km/h 85 % 0.00 in /  0 mm WeatherDisplay:10.37 W/m2 FEW
10:10 0.3 °F /  -17.6 °C -3.4 °F /  -19.7 °C 30.53 in /  1033.7 hPa NW 1.0 mph /  1.6 km/h 4.0 mph /  6.4 km/h 84 % 0.00 in /  0 mm WeatherDisplay:10.37 W/m2 FEW
10:15 0.9 °F /  -17.3 °C -3.1 °F /  -19.5 °C 30.53 in /  1033.7 hPa NW 2.0 mph /  3.2 km/h 7.0 mph /  11.3 km/h 83 % 0.00 in /  0 mm WeatherDisplay:10.37 W/m2 FEW
10:20 1.4 °F /  -17 °C -3.1 °F /  -19.5 °C 30.53 in /  1033.7 hPa Calm   7.0 mph /  11.3 km/h 81 % 0.00 in /  0 mm WeatherDisplay:10.37 W/m2 FEW
10:25 1.8 °F /  -16.8 °C -3.0 °F /  -19.4 °C 30.53 in /  1033.7 hPa NW 2.0 mph /  3.2 km/h 5.0 mph /  8 km/h 80 % 0.00 in /  0 mm WeatherDisplay:10.37 W/m2 FEW
10:30 2.2 °F /  -16.6 °C -2.5 °F /  -19.2 °C 30.53 in /  1033.7 hPa NW 6.0 mph /  9.7 km/h 9.0 mph /  14.5 km/h 80 % 0.00 in /  0 mm WeatherDisplay:10.37 W/m2 FEW
10:35 2.7 °F /  -16.3 °C -2.4 °F /  -19.1 °C 30.53 in /  1033.7 hPa NW 2.0 mph /  3.2 km/h 10.0 mph /  16.1 km/h 79 % 0.00 in /  0 mm WeatherDisplay:10.37 W/m2 FEW
10:40 3.0 °F /  -16.1 °C -2.3 °F /  -19.1 °C 30.53 in /  1033.7 hPa NW 1.0 mph /  1.6 km/h 7.0 mph /  11.3 km/h 78 % 0.00 in /  0 mm WeatherDisplay:10.37 W/m2 FEW
10:45 3.4 °F /  -15.9 °C -2.2 °F /  -19 °C 30.53 in /  1033.7 hPa NW 2.0 mph /  3.2 km/h 6.0 mph /  9.7 km/h 77 % 0.00 in /  0 mm WeatherDisplay:10.37 W/m2 FEW
10:50 3.7 °F /  -15.7 °C -2.2 °F /  -19 °C 30.53 in /  1033.7 hPa NW 2.0 mph /  3.2 km/h 7.0 mph /  11.3 km/h 76 % 0.00 in /  0 mm WeatherDisplay:10.37 W/m2 FEW
10:55 4.2 °F /  -15.4 °C -1.7 °F /  -18.7 °C 30.52 in /  1033.4 hPa NW 2.0 mph /  3.2 km/h 12.0 mph /  19.3 km/h 76 % 0.00 in /  0 mm WeatherDisplay:10.37 W/m2 FEW
11:00 4.5 °F /  -15.3 °C -1.4 °F /  -18.6 °C 30.53 in /  1033.7 hPa NNW 1.0 mph /  1.6 km/h 5.0 mph /  8 km/h 76 % 0.00 in /  0 mm WeatherDisplay:10.37 W/m2 FEW
11:05 4.8 °F /  -15.1 °C -1.4 °F /  -18.6 °C 30.52 in /  1033.4 hPa NW 2.0 mph /  3.2 km/h 7.0 mph /  11.3 km/h 75 % 0.00 in /  0 mm WeatherDisplay:10.37 W/m2 FEW
11:10 5.1 °F /  -14.9 °C -1.1 °F /  -18.4 °C 30.52 in /  1033.4 hPa NW 2.0 mph /  3.2 km/h 5.0 mph /  8 km/h 75 % 0.00 in /  0 mm WeatherDisplay:10.37 W/m2 FEW
11:15 5.4 °F /  -14.8 °C -1.1 °F /  -18.4 °C 30.52 in /  1033.4 hPa NW 5.0 mph /  8 km/h 9.0 mph /  14.5 km/h 74 % 0.00 in /  0 mm WeatherDisplay:10.37 W/m2 FEW
11:20 5.7 °F /  -14.6 °C -0.8 °F /  -18.2 °C 30.52 in /  1033.4 hPa NW 5.0 mph /  8 km/h 7.0 mph /  11.3 km/h 74 % 0.00 in /  0 mm WeatherDisplay:10.37 W/m2 FEW
11:25 5.9 °F /  -14.5 °C -0.6 °F /  -18.1 °C 30.52 in /  1033.4 hPa NW 2.0 mph /  3.2 km/h 5.0 mph /  8 km/h 74 % 0.00 in /  0 mm WeatherDisplay:10.37 W/m2 FEW
11:30 6.1 °F /  -14.4 °C -0.4 °F /  -18 °C 30.52 in /  1033.4 hPa NW 2.0 mph /  3.2 km/h 6.0 mph /  9.7 km/h 74 % 0.00 in /  0 mm WeatherDisplay:10.37 W/m2 FEW
11:35 6.4 °F /  -14.2 °C -0.4 °F /  -18 °C 30.52 in /  1033.4 hPa Calm   5.0 mph /  8 km/h 73 % 0.00 in /  0 mm WeatherDisplay:10.37 W/m2 FEW
11:40 6.6 °F /  -14.1 °C -0.2 °F /  -17.9 °C 30.52 in /  1033.4 hPa Calm   7.0 mph /  11.3 km/h 73 % 0.00 in /  0 mm WeatherDisplay:10.37 W/m2 FEW
11:45 6.9 °F /  -13.9 °C 0.1 °F /  -17.7 °C 30.51 in /  1033.1 hPa NW 3.0 mph /  4.8 km/h 7.0 mph /  11.3 km/h 73 % 0.00 in /  0 mm WeatherDisplay:10.37 W/m2 FEW
11:50 7.2 °F /  -13.8 °C 0.1 °F /  -17.7 °C 30.51 in /  1033.1 hPa NW 1.0 mph /  1.6 km/h 7.0 mph /  11.3 km/h 72 % 0.00 in /  0 mm WeatherDisplay:10.37 W/m2 FEW
11:55 7.4 °F /  -13.7 °C 0.3 °F /  -17.6 °C 30.51 in /  1033.1 hPa Calm   4.0 mph /  6.4 km/h 72 % 0.00 in /  0 mm WeatherDisplay:10.37 W/m2 FEW
12:00 7.6 °F /  -13.6 °C 0.5 °F /  -17.5 °C 30.51 in /  1033.1 hPa NNW 1.0 mph /  1.6 km/h 5.0 mph /  8 km/h 72 % 0.00 in /  0 mm WeatherDisplay:10.37 W/m2 FEW
12:05 7.7 °F /  -13.5 °C 0.3 °F /  -17.6 °C 30.51 in /  1033.1 hPa NNW 1.0 mph /  1.6 km/h 9.0 mph /  14.5 km/h 71 % 0.00 in /  0 mm WeatherDisplay:10.37 W/m2 FEW
12:10 7.9 °F /  -13.4 °C 0.4 °F /  -17.6 °C 30.51 in /  1033.1 hPa NW 2.0 mph /  3.2 km/h 7.0 mph /  11.3 km/h 71 % 0.00 in /  0 mm WeatherDisplay:10.37 W/m2 FEW
12:15 8.0 °F /  -13.3 °C 0.2 °F /  -17.7 °C 30.51 in /  1033.1 hPa NW 2.0 mph /  3.2 km/h 7.0 mph /  11.3 km/h 70 % 0.00 in /  0 mm WeatherDisplay:10.37 W/m2 FEW
12:20 8.1 °F /  -13.3 °C 0.3 °F /  -17.6 °C 30.51 in /  1033.1 hPa NW 3.0 mph /  4.8 km/h 6.0 mph /  9.7 km/h 70 % 0.00 in /  0 mm WeatherDisplay:10.37 W/m2 FEW
12:25 8.2 °F /  -13.2 °C 0.4 °F /  -17.6 °C 30.50 in /  1032.7 hPa NNW 1.0 mph /  1.6 km/h 6.0 mph /  9.7 km/h 70 % 0.00 in /  0 mm WeatherDisplay:10.37 W/m2 FEW
12:30 8.3 °F /  -13.2 °C 0.6 °F /  -17.4 °C 30.51 in /  1033.1 hPa NNW 1.0 mph /  1.6 km/h 5.0 mph /  8 km/h 70 % 0.00 in /  0 mm WeatherDisplay:10.37 W/m2 FEW
12:35 8.5 °F /  -13.1 °C 0.7 °F /  -17.4 °C 30.50 in /  1032.7 hPa Calm   4.0 mph /  6.4 km/h 70 % 0.00 in /  0 mm WeatherDisplay:10.37 W/m2 FEW
12:40 8.5 °F /  -13.1 °C 0.8 °F /  -17.3 °C 30.50 in /  1032.7 hPa NNW 1.0 mph /  1.6 km/h 6.0 mph /  9.7 km/h 70 % 0.00 in /  0 mm WeatherDisplay:10.37 W/m2 FEW
12:45 8.6 °F /  -13 °C 0.8 °F /  -17.3 °C 30.51 in /  1033.1 hPa NW 2.0 mph /  3.2 km/h 5.0 mph /  8 km/h 70 % 0.00 in /  0 mm WeatherDisplay:10.37 W/m2 FEW
12:50 8.7 °F /  -12.9 °C 0.6 °F /  -17.4 °C 30.51 in /  1033.1 hPa Calm   6.0 mph /  9.7 km/h 69 % 0.00 in /  0 mm WeatherDisplay:10.37 W/m2 FEW
12:55 8.8 °F /  -12.9 °C 1.0 °F /  -17.2 °C 30.51 in /  1033.1 hPa Calm   3.0 mph /  4.8 km/h 70 % 0.00 in /  0 mm WeatherDisplay:10.37 W/m2 FEW
13:00 9.0 °F /  -12.8 °C 0.9 °F /  -17.3 °C 30.51 in /  1033.1 hPa Calm   6.0 mph /  9.7 km/h 69 % 0.00 in /  0 mm WeatherDisplay:10.37 W/m2 FEW
13:05 9.1 °F /  -12.7 °C 1.0 °F /  -17.2 °C 30.51 in /  1033.1 hPa NW 1.0 mph /  1.6 km/h 5.0 mph /  8 km/h 69 % 0.00 in /  0 mm WeatherDisplay:10.37 W/m2 FEW
13:10 9.2 °F /  -12.7 °C 0.8 °F /  -17.3 °C 30.51 in /  1033.1 hPa NW 2.0 mph /  3.2 km/h 5.0 mph /  8 km/h 68 % 0.00 in /  0 mm WeatherDisplay:10.37 W/m2 FEW
13:15 9.3 °F /  -12.6 °C 0.9 °F /  -17.3 °C 30.51 in /  1033.1 hPa NW 2.0 mph /  3.2 km/h 10.0 mph /  16.1 km/h 68 % 0.00 in /  0 mm WeatherDisplay:10.37 W/m2 FEW
13:25 9.3 °F /  -12.6 °C 0.5 °F /  -17.5 °C 30.51 in /  1033.1 hPa NW 3.0 mph /  4.8 km/h 8.0 mph /  12.9 km/h 67 % 0.00 in /  0 mm WeatherDisplay:10.37 W/m2 FEW
13:35 9.3 °F /  -12.6 °C 0.5 °F /  -17.5 °C 30.51 in /  1033.1 hPa NNW 3.0 mph /  4.8 km/h 7.0 mph /  11.3 km/h 67 % 0.00 in /  0 mm WeatherDisplay:10.37 W/m2 FEW
13:40 9.3 °F /  -12.6 °C 0.6 °F /  -17.4 °C 30.51 in /  1033.1 hPa NNW 2.0 mph /  3.2 km/h 5.0 mph /  8 km/h 67 % 0.00 in /  0 mm WeatherDisplay:10.37 W/m2 FEW
13:45 9.4 °F /  -12.6 °C 1.0 °F /  -17.2 °C 30.52 in /  1033.4 hPa NNW 1.0 mph /  1.6 km/h 7.0 mph /  11.3 km/h 68 % 0.00 in /  0 mm WeatherDisplay:10.37 W/m2 FEW
13:55 9.5 °F /  -12.5 °C 0.7 °F /  -17.4 °C 30.52 in /  1033.4 hPa NW 3.0 mph /  4.8 km/h 8.0 mph /  12.9 km/h 67 % 0.00 in /  0 mm WeatherDisplay:10.37 W/m2 FEW
14:05 9.5 °F /  -12.5 °C 0.7 °F /  -17.4 °C 30.52 in /  1033.4 hPa NW 2.0 mph /  3.2 km/h 8.0 mph /  12.9 km/h 67 % 0.00 in /  0 mm WeatherDisplay:10.37 W/m2 FEW
14:10 9.6 °F /  -12.4 °C 0.8 °F /  -17.3 °C 30.52 in /  1033.4 hPa NW 2.0 mph /  3.2 km/h 5.0 mph /  8 km/h 67 % 0.00 in /  0 mm WeatherDisplay:10.37 W/m2 FEW
14:15 9.6 °F /  -12.4 °C 0.9 °F /  -17.3 °C 30.52 in /  1033.4 hPa WNW 3.0 mph /  4.8 km/h 7.0 mph /  11.3 km/h 67 % 0.00 in /  0 mm WeatherDisplay:10.37 W/m2 FEW
14:20 9.7 °F /  -12.4 °C 0.9 °F /  -17.3 °C 30.52 in /  1033.4 hPa NW 3.0 mph /  4.8 km/h 8.0 mph /  12.9 km/h 67 % 0.00 in /  0 mm WeatherDisplay:10.37 W/m2 FEW
14:25 9.8 °F /  -12.3 °C 1.0 °F /  -17.2 °C 30.52 in /  1033.4 hPa NW 3.0 mph /  4.8 km/h 8.0 mph /  12.9 km/h 67 % 0.00 in /  0 mm WeatherDisplay:10.37 W/m2 FEW
14:30 9.8 °F /  -12.3 °C 1.0 °F /  -17.2 °C 30.52 in /  1033.4 hPa NW 1.0 mph /  1.6 km/h 6.0 mph /  9.7 km/h 67 % 0.00 in /  0 mm WeatherDisplay:10.37 W/m2 FEW
14:35 9.9 °F /  -12.3 °C 1.1 °F /  -17.2 °C 30.52 in /  1033.4 hPa NW 2.0 mph /  3.2 km/h 7.0 mph /  11.3 km/h 67 % 0.00 in /  0 mm WeatherDisplay:10.37 W/m2 FEW
14:45 9.9 °F /  -12.3 °C 0.8 °F /  -17.3 °C 30.52 in /  1033.4 hPa NW 3.0 mph /  4.8 km/h 9.0 mph /  14.5 km/h 66 % 0.00 in /  0 mm WeatherDisplay:10.37 W/m2 FEW
14:50 9.8 °F /  -12.3 °C 0.7 °F /  -17.4 °C 30.52 in /  1033.4 hPa NW 2.0 mph /  3.2 km/h 9.0 mph /  14.5 km/h 66 % 0.00 in /  0 mm WeatherDisplay:10.37 W/m2 FEW
14:55 9.9 °F /  -12.3 °C 0.8 °F /  -17.3 °C 30.52 in /  1033.4 hPa NW 3.0 mph /  4.8 km/h 7.0 mph /  11.3 km/h 66 % 0.00 in /  0 mm WeatherDisplay:10.37 W/m2 FEW
15:00 9.9 °F /  -12.3 °C 1.1 °F /  -17.2 °C 30.53 in /  1033.7 hPa NW 5.0 mph /  8 km/h 7.0 mph /  11.3 km/h 67 % 0.00 in /  0 mm WeatherDisplay:10.37 W/m2 FEW
15:05 9.9 °F /  -12.3 °C 0.8 °F /  -17.3 °C 30.53 in /  1033.7 hPa NW 3.0 mph /  4.8 km/h 9.0 mph /  14.5 km/h 66 % 0.00 in /  0 mm WeatherDisplay:10.37 W/m2 FEW
15:10 9.9 °F /  -12.3 °C 0.8 °F /  -17.3 °C 30.53 in /  1033.7 hPa NW 2.0 mph /  3.2 km/h 9.0 mph /  14.5 km/h 66 % 0.00 in /  0 mm WeatherDisplay:10.37 W/m2 FEW
15:15 9.9 °F /  -12.3 °C 0.8 °F /  -17.3 °C 30.53 in /  1033.7 hPa NW 2.0 mph /  3.2 km/h 10.0 mph /  16.1 km/h 66 % 0.00 in /  0 mm WeatherDisplay:10.37 W/m2 FEW
15:20 9.8 °F /  -12.3 °C 0.7 °F /  -17.4 °C 30.53 in /  1033.7 hPa NW 2.0 mph /  3.2 km/h 8.0 mph /  12.9 km/h 66 % 0.00 in /  0 mm WeatherDisplay:10.37 W/m2 FEW
15:25 9.7 °F /  -12.4 °C 0.6 °F /  -17.4 °C 30.53 in /  1033.7 hPa NW 2.0 mph /  3.2 km/h 8.0 mph /  12.9 km/h 66 % 0.00 in /  0 mm WeatherDisplay:10.37 W/m2 FEW
15:35 9.4 °F /  -12.6 °C 0.3 °F /  -17.6 °C 30.53 in /  1033.7 hPa NW 5.0 mph /  8 km/h 9.0 mph /  14.5 km/h 66 % 0.00 in /  0 mm WeatherDisplay:10.37 W/m2 FEW
15:40 9.3 °F /  -12.6 °C 0.2 °F /  -17.7 °C 30.53 in /  1033.7 hPa NW 5.0 mph /  8 km/h 12.0 mph /  19.3 km/h 66 % 0.00 in /  0 mm WeatherDisplay:10.37 W/m2 FEW
15:45 9.1 °F /  -12.7 °C 0.0 °F /  -17.8 °C 30.53 in /  1033.7 hPa NW 3.0 mph /  4.8 km/h 14.0 mph /  22.5 km/h 66 % 0.00 in /  0 mm WeatherDisplay:10.37 W/m2 FEW
15:50 9.0 °F /  -12.8 °C -0.1 °F /  -17.8 °C 30.53 in /  1033.7 hPa NW 3.0 mph /  4.8 km/h 14.0 mph /  22.5 km/h 66 % 0.00 in /  0 mm WeatherDisplay:10.37 W/m2 FEW
15:55 8.8 °F /  -12.9 °C 0.1 °F /  -17.7 °C 30.54 in /  1034.1 hPa NW 2.0 mph /  3.2 km/h 9.0 mph /  14.5 km/h 67 % 0.00 in /  0 mm WeatherDisplay:10.37 W/m2 FEW
16:00 8.7 °F /  -12.9 °C 0.0 °F /  -17.8 °C 30.54 in /  1034.1 hPa Calm   4.0 mph /  6.4 km/h 67 % 0.00 in /  0 mm WeatherDisplay:10.37 W/m2 FEW
16:05 8.6 °F /  -13 °C -0.1 °F /  -17.8 °C 30.54 in /  1034.1 hPa NW 5.0 mph /  8 km/h 7.0 mph /  11.3 km/h 67 % 0.00 in /  0 mm WeatherDisplay:10.37 W/m2 FEW
16:15 8.3 °F /  -13.2 °C -0.1 °F /  -17.8 °C 30.54 in /  1034.1 hPa NW 1.0 mph /  1.6 km/h 6.0 mph /  9.7 km/h 68 % 0.00 in /  0 mm WeatherDisplay:10.37 W/m2 FEW
16:25 8.0 °F /  -13.3 °C -0.4 °F /  -18 °C 30.54 in /  1034.1 hPa Calm   4.0 mph /  6.4 km/h 68 % 0.00 in /  0 mm WeatherDisplay:10.37 W/m2 FEW
16:30 7.9 °F /  -13.4 °C -0.2 °F /  -17.9 °C 30.55 in /  1034.4 hPa NW 1.0 mph /  1.6 km/h 3.0 mph /  4.8 km/h 69 % 0.00 in /  0 mm WeatherDisplay:10.37 W/m2 FEW
16:35 7.7 °F /  -13.5 °C -0.4 °F /  -18 °C 30.55 in /  1034.4 hPa Calm   3.0 mph /  4.8 km/h 69 % 0.00 in /  0 mm WeatherDisplay:10.37 W/m2 FEW
16:45 7.3 °F /  -13.7 °C -0.7 °F /  -18.2 °C 30.55 in /  1034.4 hPa Calm   5.0 mph /  8 km/h 69 % 0.00 in /  0 mm WeatherDisplay:10.37 W/m2 FEW
16:50 7.2 °F /  -13.8 °C -0.6 °F /  -18.1 °C 30.55 in /  1034.4 hPa NW 3.0 mph /  4.8 km/h 6.0 mph /  9.7 km/h 70 % 0.00 in /  0 mm WeatherDisplay:10.37 W/m2 FEW
17:00 6.7 °F /  -14.1 °C -1.0 °F /  -18.3 °C 30.55 in /  1034.4 hPa NW 1.0 mph /  1.6 km/h 5.0 mph /  8 km/h 70 % 0.00 in /  0 mm WeatherDisplay:10.37 W/m2 FEW
17:10 6.4 °F /  -14.2 °C -1.3 °F /  -18.5 °C 30.55 in /  1034.4 hPa Calm   2.0 mph /  3.2 km/h 70 % 0.00 in /  0 mm WeatherDisplay:10.37 W/m2 FEW
17:15 6.3 °F /  -14.3 °C -1.4 °F /  -18.6 °C 30.56 in /  1034.8 hPa Calm   3.0 mph /  4.8 km/h 70 % 0.00 in /  0 mm WeatherDisplay:10.37 W/m2 FEW
17:25 6.1 °F /  -14.4 °C -1.6 °F /  -18.7 °C 30.56 in /  1034.8 hPa Calm   2.0 mph /  3.2 km/h 70 % 0.00 in /  0 mm WeatherDisplay:10.37 W/m2 FEW
17:35 5.7 °F /  -14.6 °C -1.7 °F /  -18.7 °C 30.56 in /  1034.8 hPa Calm   2.0 mph /  3.2 km/h 71 % 0.00 in /  0 mm WeatherDisplay:10.37 W/m2 FEW
17:45 5.3 °F /  -14.8 °C -2.1 °F /  -18.9 °C 30.56 in /  1034.8 hPa Calm     71 % 0.00 in /  0 mm WeatherDisplay:10.37 W/m2 FEW
17:55 4.9 °F /  -15.1 °C -2.5 °F /  -19.2 °C 30.57 in /  1035.1 hPa Calm     71 % 0.00 in /  0 mm WeatherDisplay:10.37 W/m2 FEW
18:05 4.4 °F /  -15.3 °C -2.9 °F /  -19.4 °C 30.57 in /  1035.1 hPa Calm     71 % 0.00 in /  0 mm WeatherDisplay:10.37 W/m2 FEW
18:10 4.1 °F /  -15.5 °C -2.9 °F /  -19.4 °C 30.57 in /  1035.1 hPa Calm   1.0 mph /  1.6 km/h 72 % 0.00 in /  0 mm WeatherDisplay:10.37 W/m2 FEW
18:15 3.6 °F /  -15.8 °C -3.4 °F /  -19.7 °C 30.58 in /  1035.4 hPa Calm   1.0 mph /  1.6 km/h 72 % 0.00 in /  0 mm WeatherDisplay:10.37 W/m2 FEW
18:25 2.8 °F /  -16.2 °C -3.9 °F /  -19.9 °C 30.58 in /  1035.4 hPa Calm     73 % 0.00 in /  0 mm WeatherDisplay:10.37 W/m2 FEW
18:35 2.3 °F /  -16.5 °C -4.1 °F /  -20.1 °C 30.59 in /  1035.8 hPa Calm     74 % 0.00 in /  0 mm WeatherDisplay:10.37 W/m2 FEW
18:40 2.0 °F /  -16.7 °C -4.4 °F /  -20.2 °C 30.59 in /  1035.8 hPa Calm     74 % 0.00 in /  0 mm WeatherDisplay:10.37 W/m2 FEW
18:45 1.7 °F /  -16.8 °C -4.7 °F /  -20.4 °C 30.59 in /  1035.8 hPa Calm     74 % 0.00 in /  0 mm WeatherDisplay:10.37 W/m2 FEW
18:50 1.4 °F /  -17 °C -5.0 °F /  -20.6 °C 30.59 in /  1035.8 hPa Calm     74 % 0.00 in /  0 mm WeatherDisplay:10.37 W/m2 FEW
18:55 1.1 °F /  -17.2 °C -5.0 °F /  -20.6 °C 30.59 in /  1035.8 hPa Calm     75 % 0.00 in /  0 mm WeatherDisplay:10.37 W/m2 FEW
19:05 0.5 °F /  -17.5 °C -5.3 °F /  -20.7 °C 30.59 in /  1035.8 hPa Calm     76 % 0.00 in /  0 mm WeatherDisplay:10.37 W/m2 FEW
19:10 0.2 °F /  -17.7 °C -5.3 °F /  -20.7 °C 30.59 in /  1035.8 hPa Calm     77 % 0.00 in /  0 mm WeatherDisplay:10.37 W/m2 FEW
19:20 -0.2 °F /  -17.9 °C -5.4 °F /  -20.8 °C 30.59 in /  1035.8 hPa Calm     78 % 0.00 in /  0 mm WeatherDisplay:10.37 W/m2 FEW
19:25 -0.3 °F /  -17.9 °C -5.6 °F /  -20.9 °C 30.59 in /  1035.8 hPa Calm     78 % 0.00 in /  0 mm WeatherDisplay:10.37 W/m2 FEW
19:30 -0.5 °F /  -18.1 °C -5.7 °F /  -20.9 °C 30.59 in /  1035.8 hPa Calm     78 % 0.00 in /  0 mm WeatherDisplay:10.37 W/m2 FEW
19:35 -0.6 °F /  -18.1 °C -5.8 °F /  -21 °C 30.59 in /  1035.8 hPa Calm     78 % 0.00 in /  0 mm WeatherDisplay:10.37 W/m2 FEW
19:40 -0.8 °F /  -18.2 °C -6.0 °F /  -21.1 °C 30.58 in /  1035.4 hPa Calm     78 % 0.00 in /  0 mm WeatherDisplay:10.37 W/m2 FEW
19:45 -1.0 °F /  -18.3 °C -6.2 °F /  -21.2 °C 30.59 in /  1035.8 hPa Calm     78 % 0.00 in /  0 mm WeatherDisplay:10.37 W/m2 FEW
19:55 -1.3 °F /  -18.5 °C -6.5 °F /  -21.4 °C 30.59 in /  1035.8 hPa Calm     78 % 0.00 in /  0 mm WeatherDisplay:10.37 W/m2 FEW
20:00 -1.5 °F /  -18.6 °C -6.7 °F /  -21.5 °C 30.59 in /  1035.8 hPa Calm     78 % 0.00 in /  0 mm WeatherDisplay:10.37 W/m2 FEW
20:05 -1.7 °F /  -18.7 °C -6.9 °F /  -21.6 °C 30.59 in /  1035.8 hPa Calm     78 % 0.00 in /  0 mm WeatherDisplay:10.37 W/m2 FEW
20:10 -2.0 °F /  -18.9 °C -7.2 °F /  -21.8 °C 30.59 in /  1035.8 hPa Calm   1.0 mph /  1.6 km/h 78 % 0.00 in /  0 mm WeatherDisplay:10.37 W/m2 FEW
20:15 -2.2 °F /  -19 °C -7.4 °F /  -21.9 °C 30.59 in /  1035.8 hPa Calm     78 % 0.00 in /  0 mm WeatherDisplay:10.37 W/m2 FEW
20:20 -2.4 °F /  -19.1 °C -7.6 °F /  -22 °C 30.59 in /  1035.8 hPa Calm     78 % 0.00 in /  0 mm WeatherDisplay:10.37 W/m2 FEW
20:25 -2.6 °F /  -19.2 °C -7.8 °F /  -22.1 °C 30.59 in /  1035.8 hPa Calm     78 % 0.00 in /  0 mm WeatherDisplay:10.37 W/m2 FEW
20:30 -2.7 °F /  -19.3 °C -7.9 °F /  -22.2 °C 30.59 in /  1035.8 hPa Calm     78 % 0.00 in /  0 mm WeatherDisplay:10.37 W/m2 FEW
20:35 -3.0 °F /  -19.4 °C -8.1 °F /  -22.3 °C 30.59 in /  1035.8 hPa Calm     78 % 0.00 in /  0 mm WeatherDisplay:10.37 W/m2 FEW
20:40 -3.1 °F /  -19.5 °C -8.3 °F /  -22.4 °C 30.59 in /  1035.8 hPa Calm     78 % 0.00 in /  0 mm WeatherDisplay:10.37 W/m2 FEW
20:45 -3.3 °F /  -19.6 °C -8.2 °F /  -22.3 °C 30.59 in /  1035.8 hPa Calm     79 % 0.00 in /  0 mm WeatherDisplay:10.37 W/m2 FEW
20:55 -3.7 °F /  -19.8 °C -8.6 °F /  -22.6 °C 30.58 in /  1035.4 hPa Calm     79 % 0.00 in /  0 mm WeatherDisplay:10.37 W/m2 FEW
21:00 -3.8 °F /  -19.9 °C -8.7 °F /  -22.6 °C 30.58 in /  1035.4 hPa Calm     79 % 0.00 in /  0 mm WeatherDisplay:10.37 W/m2 FEW
21:05 -4.0 °F /  -20 °C -8.9 °F /  -22.7 °C 30.58 in /  1035.4 hPa Calm     79 % 0.00 in /  0 mm WeatherDisplay:10.37 W/m2 FEW
21:10 -4.1 °F /  -20.1 °C -9.0 °F /  -22.8 °C 30.59 in /  1035.8 hPa Calm     79 % 0.00 in /  0 mm WeatherDisplay:10.37 W/m2 FEW
21:15 -4.4 °F /  -20.2 °C -9.3 °F /  -22.9 °C 30.58 in /  1035.4 hPa Calm     79 % 0.00 in /  0 mm WeatherDisplay:10.37 W/m2 FEW
21:20 -4.5 °F /  -20.3 °C -9.4 °F /  -23 °C 30.58 in /  1035.4 hPa Calm     79 % 0.00 in /  0 mm WeatherDisplay:10.37 W/m2 FEW
21:25 -4.6 °F /  -20.3 °C -9.2 °F /  -22.9 °C 30.58 in /  1035.4 hPa Calm     80 % 0.00 in /  0 mm WeatherDisplay:10.37 W/m2 FEW
21:30 -4.8 °F /  -20.4 °C -9.7 °F /  -23.2 °C 30.58 in /  1035.4 hPa Calm     79 % 0.00 in /  0 mm WeatherDisplay:10.37 W/m2 FEW
21:35 -4.9 °F /  -20.5 °C -9.8 °F /  -23.2 °C 30.58 in /  1035.4 hPa Calm     79 % 0.00 in /  0 mm WeatherDisplay:10.37 W/m2 FEW
21:45 -5.2 °F /  -20.7 °C -9.8 °F /  -23.2 °C 30.58 in /  1035.4 hPa Calm     80 % 0.00 in /  0 mm WeatherDisplay:10.37 W/m2 FEW
21:50 -5.4 °F /  -20.8 °C -10.3 °F /  -23.5 °C 30.58 in /  1035.4 hPa Calm     79 % 0.00 in /  0 mm WeatherDisplay:10.37 W/m2 FEW
21:55 -5.7 °F /  -20.9 °C -10.2 °F /  -23.4 °C 30.58 in /  1035.4 hPa Calm     80 % 0.00 in /  0 mm WeatherDisplay:10.37 W/m2 FEW
22:00 -5.9 °F /  -21.1 °C -10.5 °F /  -23.6 °C 30.58 in /  1035.4 hPa Calm     80 % 0.00 in /  0 mm WeatherDisplay:10.37 W/m2 FEW
22:05 -6.0 °F /  -21.1 °C -10.6 °F /  -23.7 °C 30.58 in /  1035.4 hPa Calm     80 % 0.00 in /  0 mm WeatherDisplay:10.37 W/m2 FEW
22:10 -6.2 °F /  -21.2 °C -10.5 °F /  -23.6 °C 30.59 in /  1035.8 hPa Calm     81 % 0.00 in /  0 mm WeatherDisplay:10.37 W/m2 FEW
22:15 -6.4 °F /  -21.3 °C -10.7 °F /  -23.7 °C 30.59 in /  1035.8 hPa Calm     81 % 0.00 in /  0 mm WeatherDisplay:10.37 W/m2 FEW
22:20 -6.5 °F /  -21.4 °C -10.8 °F /  -23.8 °C 30.58 in /  1035.4 hPa Calm     81 % 0.00 in /  0 mm WeatherDisplay:10.37 W/m2 FEW
22:25 -6.6 °F /  -21.4 °C -10.9 °F /  -23.8 °C 30.58 in /  1035.4 hPa Calm   1.0 mph /  1.6 km/h 81 % 0.00 in /  0 mm WeatherDisplay:10.37 W/m2 FEW
22:30 -6.7 °F /  -21.5 °C -11.0 °F /  -23.9 °C 30.58 in /  1035.4 hPa Calm   1.0 mph /  1.6 km/h 81 % 0.00 in /  0 mm WeatherDisplay:10.37 W/m2 FEW
22:35 -6.8 °F /  -21.6 °C -10.8 °F /  -23.8 °C 30.59 in /  1035.8 hPa Calm     82 % 0.00 in /  0 mm WeatherDisplay:10.37 W/m2 FEW
22:40 -6.8 °F /  -21.6 °C -10.9 °F /  -23.8 °C 30.59 in /  1035.8 hPa Calm     82 % 0.00 in /  0 mm WeatherDisplay:10.37 W/m2 FEW
22:45 -6.9 °F /  -21.6 °C -10.9 °F /  -23.8 °C 30.59 in /  1035.8 hPa Calm     82 % 0.00 in /  0 mm WeatherDisplay:10.37 W/m2 FEW
22:50 -6.9 °F /  -21.6 °C -10.9 °F /  -23.8 °C 30.59 in /  1035.8 hPa Calm     82 % 0.00 in /  0 mm WeatherDisplay:10.37 W/m2 FEW
22:55 -7.0 °F /  -21.7 °C -11.0 °F /  -23.9 °C 30.59 in /  1035.8 hPa Calm     82 % 0.00 in /  0 mm WeatherDisplay:10.37 W/m2 FEW
23:05 -7.3 °F /  -21.8 °C -11.3 °F /  -24.1 °C 30.59 in /  1035.8 hPa Calm   1.0 mph /  1.6 km/h 82 % 0.00 in /  0 mm WeatherDisplay:10.37 W/m2 FEW
23:10 -7.4 °F /  -21.9 °C -11.4 °F /  -24.1 °C 30.59 in /  1035.8 hPa Calm     82 % 0.00 in /  0 mm WeatherDisplay:10.37 W/m2 FEW
23:15 -7.5 °F /  -21.9 °C -11.5 °F /  -24.2 °C 30.59 in /  1035.8 hPa Calm     82 % 0.00 in /  0 mm WeatherDisplay:10.37 W/m2 FEW
23:20 -7.6 °F /  -22 °C -11.6 °F /  -24.2 °C 30.59 in /  1035.8 hPa Calm     82 % 0.00 in /  0 mm WeatherDisplay:10.37 W/m2 FEW
23:25 -7.7 °F /  -22.1 °C -11.7 °F /  -24.3 °C 30.59 in /  1035.8 hPa Calm     82 % 0.00 in /  0 mm WeatherDisplay:10.37 W/m2 FEW
23:30 -7.8 °F /  -22.1 °C -11.8 °F /  -24.3 °C 30.59 in /  1035.8 hPa Calm     82 % 0.00 in /  0 mm WeatherDisplay:10.37 W/m2 FEW
23:35 -7.9 °F /  -22.2 °C -11.9 °F /  -24.4 °C 30.58 in /  1035.4 hPa Calm     82 % 0.00 in /  0 mm WeatherDisplay:10.37 W/m2 FEW
23:40 -8.0 °F /  -22.2 °C -12.0 °F /  -24.4 °C 30.58 in /  1035.4 hPa Calm     82 % 0.00 in /  0 mm WeatherDisplay:10.37 W/m2 FEW
23:45 -8.1 °F /  -22.3 °C -12.1 °F /  -24.5 °C 30.58 in /  1035.4 hPa Calm     82 % 0.00 in /  0 mm WeatherDisplay:10.37 W/m2 FEW
23:50 -8.2 °F /  -22.3 °C -12.2 °F /  -24.6 °C 30.58 in /  1035.4 hPa Calm     82 % 0.00 in /  0 mm WeatherDisplay:10.37 W/m2 FEW
23:55 -8.3 °F /  -22.4 °C -12.3 °F /  -24.6 °C 30.58 in /  1035.4 hPa Calm     82 % 0.00 in /  0 mm WeatherDisplay:10.37 W/m2 FEW
Juneau County Weather
Compliments of Weather Underground - 2.75 mb